Puvirnituq, Canada
Current Conditions -  °F | °C
As of 9:00 PM on Wednesday 26 Nov 2014 (Local Time) from CYPX Reporting Station
Light Snow Light Snow  
Wind Chill: -4°   Ceiling: 2800
Heat Index: 12°   Visibility: 3mi
Dew Point:   Wind: 16mph
Humidity: 73%   Direction: 300°WNW
Pressure: 29.91"   Gusts: NA
Location:  60.03°N, 77.28°W
Report Text: CYPX 270200Z 30014KT 3SM -SN OVC028 M11/M15 A2991 RMK SC8 SLP132
Loading
Personal Weather Stations






























Interactive Weather Map New forecast layout! Learn more

10-Day Weather Forecast

Advertisements
Track Severe Weather on mobile